KHYA/HYA METAR and TAF weather

Enter ICAO airport designator
Station Type Date Time Source
KHYA METAR 2022/08/12 15:56 UTC NOAA

KHYA 121556Z 35010KT 10SM BKN010 OVC020 22/17 A2995 RMK AO2 SLP141 T02170167


Station Type Date Time Source
KHYA Decoded METAR 2022/08/12 15:56 UTC NOAA

HYANNIS BARNSTABLE BOARDMN, MA, United States (KHYA) 41-40N 070-16W 22M
Aug 12, 2022 - 11:56 AM EDT / 2022.08.12 1556 UTC
Wind: from the N (350 degrees) at 12 MPH (10 KT):0
Visibility: 10 mile(s):0
Sky conditions: overcast
Temperature: 71.1 F (21.7 C)
Dew Point: 62.1 F (16.7 C)
Relative Humidity: 73%
Pressure (altimeter): 29.95 in. Hg (1014 hPa)
ob: KHYA 121556Z 35010KT 10SM BKN010 OVC020 22/17 A2995 RMK AO2 SLP141 T02170167
cycle: 16

Station Type Date Time Source
KHYA TAF 2022/08/12 14:42 UTC NOAA

TAF
AMD KHYA 121340Z 1214/1312 34007KT P6SM SCT008 BKN012
FM121600 36009KT P6SM BKN035
FM130000 04004KT P6SM BKN130
FM131000 01009KT P6SM BKN150

Example: see airport list